createdAt,value
2022-10-13T00:01:35.769Z,27.25
2022-10-13T00:04:08.289Z,27.05
2022-10-13T00:06:41.108Z,31.25
2022-10-13T00:09:13.862Z,30.52
2022-10-13T00:11:46.465Z,26.13
2022-10-13T00:14:19.050Z,29.38
2022-10-13T00:16:51.595Z,25.90
2022-10-13T00:19:24.159Z,28.08
2022-10-13T00:21:56.674Z,26.55
2022-10-13T00:24:29.128Z,29.45
2022-10-13T00:27:01.785Z,26.30
2022-10-13T00:29:34.295Z,29.20
2022-10-13T00:32:06.881Z,32.97
2022-10-13T00:34:39.648Z,26.40
2022-10-13T00:37:12.178Z,27.42
2022-10-13T00:39:44.593Z,26.27
2022-10-13T00:42:18.563Z,27.10
2022-10-13T00:45:16.332Z,30.00
2022-10-13T00:47:55.323Z,26.90
2022-10-13T00:50:34.036Z,30.63
2022-10-13T00:53:10.950Z,31.95
2022-10-13T00:58:23.093Z,32.88
2022-10-13T01:00:55.697Z,29.60
2022-10-13T01:03:28.252Z,27.33
2022-10-13T01:06:03.607Z,27.90
2022-10-13T01:11:32.612Z,28.92
2022-10-13T01:14:26.894Z,29.08
2022-10-13T01:17:00.228Z,30.45
2022-10-13T01:20:01.259Z,34.75
2022-10-13T01:22:49.435Z,32.38
2022-10-13T01:25:45.668Z,35.85
2022-10-13T01:31:37.238Z,32.58
2022-10-13T01:34:21.227Z,39.63
2022-10-13T01:37:03.862Z,30.33
2022-10-13T01:39:43.457Z,30.73
2022-10-13T01:42:24.724Z,31.08
2022-10-13T01:45:02.326Z,31.77
2022-10-13T01:47:37.001Z,29.40
2022-10-13T01:50:10.044Z,31.13
2022-10-13T01:52:43.668Z,28.92
2022-10-13T01:55:16.374Z,28.77
2022-10-13T01:57:48.914Z,30.42
2022-10-13T02:00:22.776Z,29.98
2022-10-13T02:03:10.969Z,31.10
2022-10-13T02:05:56.393Z,27.23
2022-10-13T02:08:37.454Z,28.92
2022-10-13T02:11:15.253Z,28.85
2022-10-13T02:13:58.116Z,30.27
2022-10-13T02:16:36.043Z,33.05
2022-10-13T02:19:11.460Z,30.88
2022-10-13T02:24:16.709Z,29.65
2022-10-13T02:26:49.372Z,32.30
2022-10-13T02:29:25.244Z,30.83
2022-10-13T02:31:57.768Z,30.30
2022-10-13T02:34:30.415Z,30.45
2022-10-13T02:37:02.921Z,29.42
2022-10-13T02:39:35.402Z,31.27
2022-10-13T02:42:08.277Z,26.92
2022-10-13T02:44:40.838Z,32.88
2022-10-13T02:47:13.571Z,36.38
2022-10-13T02:49:46.069Z,27.35
2022-10-13T02:52:18.870Z,29.88
2022-10-13T02:54:52.075Z,30.30
2022-10-13T02:57:24.771Z,34.90
2022-10-13T02:59:58.102Z,30.55
2022-10-13T03:02:31.493Z,26.63
2022-10-13T03:05:04.682Z,32.40
2022-10-13T03:07:37.443Z,31.42
2022-10-13T03:10:11.076Z,34.75
2022-10-13T03:12:43.616Z,29.35
2022-10-13T03:15:16.477Z,29.73
2022-10-13T03:17:49.125Z,27.30
2022-10-13T03:20:21.902Z,29.33
2022-10-13T03:22:54.479Z,29.70
2022-10-13T03:25:26.976Z,31.42
2022-10-13T03:27:59.556Z,33.50
2022-10-13T03:30:32.089Z,30.27
2022-10-13T03:33:05.738Z,30.08
2022-10-13T03:35:38.279Z,28.08
2022-10-13T03:38:10.742Z,27.80
2022-10-13T03:40:43.890Z,26.25
2022-10-13T03:43:16.389Z,31.10
2022-10-13T03:46:06.210Z,30.10
2022-10-13T03:48:38.972Z,28.98
2022-10-13T03:51:15.748Z,31.20
2022-10-13T03:53:52.131Z,31.10
2022-10-13T03:56:27.269Z,26.52
2022-10-13T03:59:01.214Z,31.30
2022-10-13T04:01:34.719Z,28.85
2022-10-13T04:04:08.082Z,28.75
2022-10-13T04:06:40.912Z,36.63
2022-10-13T04:09:13.484Z,29.48
2022-10-13T04:11:46.037Z,27.98
2022-10-13T04:14:18.904Z,27.58
2022-10-13T04:16:51.472Z,35.50
2022-10-13T04:19:24.045Z,31.45
2022-10-13T04:21:57.210Z,31.80
2022-10-13T04:24:29.833Z,31.23
2022-10-13T04:27:02.523Z,34.60
2022-10-13T04:29:35.138Z,28.10
2022-10-13T04:32:07.842Z,26.67
2022-10-13T04:34:40.448Z,27.20
2022-10-13T04:37:13.151Z,28.58
2022-10-13T04:39:45.763Z,30.15
2022-10-13T04:42:18.617Z,31.40
2022-10-13T04:44:51.483Z,31.88
2022-10-13T04:47:27.256Z,28.40
2022-10-13T04:49:59.910Z,30.40
2022-10-13T04:52:33.941Z,28.70
2022-10-13T04:55:07.371Z,31.85
2022-10-13T04:57:39.978Z,29.70
2022-10-13T05:00:13.214Z,30.15
2022-10-13T05:02:45.846Z,33.08
2022-10-13T05:05:18.916Z,33.40
2022-10-13T05:07:51.660Z,32.55
2022-10-13T05:10:24.129Z,35.45
2022-10-13T05:12:56.869Z,30.85
2022-10-13T05:15:29.357Z,33.78
2022-10-13T05:18:02.093Z,29.85
2022-10-13T05:20:34.875Z,36.00
2022-10-13T05:23:07.588Z,33.40
2022-10-13T05:25:40.201Z,28.50
2022-10-13T05:28:16.615Z,29.77
2022-10-13T05:30:49.206Z,32.60
2022-10-13T05:33:21.904Z,37.25
2022-10-13T05:35:54.390Z,36.92
2022-10-13T05:38:26.923Z,37.35
2022-10-13T05:41:10.039Z,33.33
2022-10-13T05:43:43.376Z,34.53
2022-10-13T05:46:16.151Z,34.65
2022-10-13T05:48:48.757Z,32.95
2022-10-13T05:51:35.020Z,32.22
2022-10-13T05:54:17.799Z,30.85
2022-10-13T05:56:57.834Z,28.02
2022-10-13T05:59:37.483Z,30.15
2022-10-13T06:02:12.573Z,30.88
2022-10-13T06:04:49.638Z,30.27
2022-10-13T06:07:22.531Z,33.92
2022-10-13T06:09:56.418Z,26.60
2022-10-13T06:12:29.175Z,32.90
2022-10-13T06:15:01.901Z,31.75
2022-10-13T06:17:38.407Z,32.40
2022-10-13T06:20:11.548Z,33.55
2022-10-13T06:22:44.088Z,30.80
2022-10-13T06:25:17.085Z,30.58
2022-10-13T06:27:49.688Z,31.88
2022-10-13T06:30:22.533Z,28.77
2022-10-13T06:32:56.319Z,28.75
2022-10-13T06:35:29.259Z,30.95
2022-10-13T06:38:02.286Z,29.23
2022-10-13T06:40:35.313Z,32.50
2022-10-13T06:43:08.234Z,31.17
2022-10-13T06:45:46.960Z,29.35
2022-10-13T06:48:19.843Z,32.90
2022-10-13T06:50:52.460Z,31.42
2022-10-13T06:53:25.036Z,30.85
2022-10-13T06:56:01.063Z,30.00
2022-10-13T06:58:35.537Z,31.70
2022-10-13T07:01:08.363Z,33.47
2022-10-13T07:03:41.240Z,30.88
2022-10-13T07:06:14.024Z,32.30
2022-10-13T07:08:46.926Z,30.40
2022-10-13T07:11:20.999Z,27.85
2022-10-13T07:13:57.191Z,29.45
2022-10-13T07:16:30.411Z,30.60
2022-10-13T07:19:03.111Z,26.88
2022-10-13T07:21:35.854Z,29.63
2022-10-13T07:24:10.400Z,35.28
2022-10-13T07:26:43.048Z,26.58
2022-10-13T07:29:16.347Z,30.08
2022-10-13T07:31:49.224Z,29.50
2022-10-13T07:34:22.186Z,30.40
2022-10-13T07:36:54.826Z,32.83
2022-10-13T07:39:27.395Z,39.92
2022-10-13T07:42:00.035Z,37.83
2022-10-13T07:44:32.610Z,40.60
2022-10-13T07:47:05.540Z,35.42
2022-10-13T07:49:38.225Z,37.53
2022-10-13T07:52:10.961Z,39.03
2022-10-13T07:54:43.568Z,34.72
2022-10-13T07:57:17.563Z,38.47
2022-10-13T07:59:50.361Z,38.47
2022-10-13T08:02:22.916Z,36.15
2022-10-13T08:04:55.431Z,38.58
2022-10-13T08:07:28.314Z,42.05
2022-10-13T08:10:00.852Z,34.92
2022-10-13T08:12:35.486Z,37.75
2022-10-13T08:15:09.309Z,40.10
2022-10-13T08:17:42.055Z,41.40
2022-10-13T08:20:14.466Z,43.38
2022-10-13T08:22:47.056Z,47.80
2022-10-13T08:25:19.654Z,44.47
2022-10-13T08:27:55.758Z,42.03
2022-10-13T08:30:33.566Z,46.85
2022-10-13T08:33:06.213Z,38.45
2022-10-13T08:35:39.274Z,42.47
2022-10-13T08:38:11.953Z,41.53
2022-10-13T08:40:50.118Z,48.08
2022-10-13T08:43:24.740Z,43.85
2022-10-13T08:46:01.248Z,42.08
2022-10-13T08:48:42.264Z,45.25
2022-10-13T08:51:17.414Z,51.38
2022-10-13T08:53:50.480Z,45.92
2022-10-13T08:56:31.357Z,46.50
2022-10-13T08:59:05.346Z,42.58
2022-10-13T09:01:38.058Z,40.67
2022-10-13T09:04:25.020Z,42.85
2022-10-13T09:07:05.365Z,40.95
2022-10-13T09:09:38.844Z,42.47
2022-10-13T09:12:13.540Z,48.45
2022-10-13T09:15:03.370Z,45.05
2022-10-13T09:17:38.258Z,45.28
2022-10-13T09:20:29.815Z,41.05
2022-10-13T09:23:08.091Z,50.17
2022-10-13T09:25:47.948Z,45.15
2022-10-13T09:28:27.020Z,45.80
2022-10-13T09:31:15.626Z,42.63
2022-10-13T09:34:02.369Z,41.05
2022-10-13T09:36:35.002Z,47.55
2022-10-13T09:39:16.455Z,52.70
2022-10-13T09:41:50.229Z,48.95
2022-10-13T09:44:32.216Z,49.50
2022-10-13T09:47:05.326Z,42.60
2022-10-13T09:49:41.824Z,41.45
2022-10-13T09:52:16.663Z,42.55
2022-10-13T09:54:51.997Z,44.97
2022-10-13T10:00:17.489Z,45.20
2022-10-13T10:02:59.600Z,39.90
2022-10-13T10:05:50.965Z,39.95
2022-10-13T10:09:09.388Z,46.33
2022-10-13T10:11:49.044Z,39.78
2022-10-13T10:14:30.302Z,39.50
2022-10-13T10:17:27.164Z,41.20
2022-10-13T10:20:08.268Z,38.78
2022-10-13T10:22:56.348Z,35.17
2022-10-13T10:25:35.845Z,38.28
2022-10-13T10:28:24.590Z,36.92
2022-10-13T10:31:12.622Z,33.45
2022-10-13T10:33:59.819Z,33.83
2022-10-13T10:36:37.888Z,33.03
2022-10-13T10:39:35.981Z,28.80
2022-10-13T10:42:38.466Z,27.73
2022-10-13T10:45:23.124Z,34.05
2022-10-13T10:48:02.014Z,26.90
2022-10-13T10:50:36.029Z,26.83
2022-10-13T10:53:22.284Z,32.00
2022-10-13T10:56:09.742Z,30.33
2022-10-13T10:59:02.114Z,34.13
2022-10-13T11:01:46.691Z,29.85
2022-10-13T11:04:51.095Z,36.38
2022-10-13T11:07:25.531Z,29.17
2022-10-13T11:10:05.525Z,26.90
2022-10-13T11:12:53.789Z,34.85
2022-10-13T11:15:31.886Z,26.83
2022-10-13T11:18:40.865Z,35.83
2022-10-13T11:21:13.791Z,24.95
2022-10-13T11:23:50.721Z,34.00
2022-10-13T11:26:28.318Z,29.23
2022-10-13T11:29:01.328Z,31.02
2022-10-13T11:31:51.873Z,30.10
2022-10-13T11:34:30.219Z,24.75
2022-10-13T11:37:12.962Z,24.60
2022-10-13T11:40:01.270Z,27.90
2022-10-13T11:42:55.546Z,32.15
2022-10-13T11:45:40.970Z,26.92
2022-10-13T11:48:32.939Z,26.92
2022-10-13T11:51:23.975Z,28.30
2022-10-13T11:54:12.459Z,28.67
2022-10-13T11:56:48.861Z,25.95
2022-10-13T11:59:24.984Z,23.90
2022-10-13T12:02:05.930Z,24.58
2022-10-13T12:04:45.662Z,21.98
2022-10-13T12:07:23.864Z,24.65
2022-10-13T12:09:58.366Z,20.52
2022-10-13T12:12:32.117Z,20.33
2022-10-13T12:15:30.951Z,18.83
2022-10-13T12:18:22.378Z,18.55
2022-10-13T12:20:57.518Z,19.17
2022-10-13T12:23:32.269Z,17.35
2022-10-13T12:26:06.047Z,16.98
2022-10-13T12:28:56.898Z,13.50
2022-10-13T12:31:40.954Z,21.23
2022-10-13T12:34:32.100Z,20.90
2022-10-13T12:37:14.044Z,19.98
2022-10-13T12:39:47.305Z,20.23
2022-10-13T12:42:26.826Z,19.05
2022-10-13T12:45:01.700Z,18.75
2022-10-13T12:47:45.228Z,18.83
2022-10-13T12:50:35.865Z,14.93
2022-10-13T12:53:14.785Z,16.02
2022-10-13T12:55:50.985Z,21.17
2022-10-13T12:58:28.517Z,19.48
2022-10-13T13:01:19.976Z,19.80
2022-10-13T13:03:59.162Z,15.65
2022-10-13T13:06:34.980Z,16.48
2022-10-13T13:09:17.095Z,15.48
2022-10-13T13:12:05.802Z,15.48
2022-10-13T13:14:42.390Z,17.67
2022-10-13T13:17:38.426Z,18.48
2022-10-13T13:20:29.335Z,20.02
2022-10-13T13:23:02.378Z,19.45
2022-10-13T13:25:36.601Z,17.90
2022-10-13T13:28:13.210Z,23.25
2022-10-13T13:30:46.602Z,18.95
2022-10-13T13:33:19.748Z,23.02
2022-10-13T13:35:54.044Z,20.08
2022-10-13T13:38:26.575Z,18.85
2022-10-13T13:41:03.074Z,21.25
2022-10-13T13:43:37.022Z,18.60
2022-10-13T13:46:17.713Z,20.60
2022-10-13T13:48:50.595Z,20.20
2022-10-13T13:51:23.313Z,21.00
2022-10-13T13:53:55.883Z,20.92
2022-10-13T13:56:28.644Z,21.42
2022-10-13T13:59:01.188Z,19.35
2022-10-13T14:01:33.817Z,18.45
2022-10-13T14:04:06.422Z,25.55
2022-10-13T14:06:38.995Z,19.17
2022-10-13T14:09:11.611Z,22.00
2022-10-13T14:11:44.242Z,21.73
2022-10-13T14:14:16.954Z,30.08
2022-10-13T14:16:49.734Z,26.90
2022-10-13T14:19:22.213Z,21.73
2022-10-13T14:21:54.830Z,23.40
2022-10-13T14:24:27.709Z,20.52
2022-10-13T14:27:00.505Z,23.20
2022-10-13T14:29:33.332Z,23.95
2022-10-13T14:32:06.324Z,20.05
2022-10-13T14:34:38.907Z,21.10
2022-10-13T14:37:11.493Z,20.13
2022-10-13T14:39:45.784Z,16.13
2022-10-13T14:42:18.995Z,17.80
2022-10-13T14:44:52.161Z,25.05
2022-10-13T14:48:04.272Z,18.23
2022-10-13T14:50:40.213Z,20.30
2022-10-13T14:53:15.709Z,21.10
2022-10-13T14:55:49.496Z,21.63
2022-10-13T14:58:22.415Z,21.55
2022-10-13T15:00:56.000Z,20.30
2022-10-13T15:03:29.085Z,23.80
2022-10-13T15:06:02.169Z,27.88
2022-10-13T15:08:35.869Z,25.33
2022-10-13T15:11:09.934Z,23.48
2022-10-13T15:13:42.908Z,24.27
2022-10-13T15:16:19.751Z,19.55
2022-10-13T15:18:52.768Z,23.30
2022-10-13T15:21:25.995Z,21.10
2022-10-13T15:23:58.589Z,20.25
2022-10-13T15:26:31.191Z,20.05
2022-10-13T15:29:04.105Z,21.50
2022-10-13T15:31:36.915Z,19.23
2022-10-13T15:34:15.155Z,24.52
2022-10-13T15:36:48.099Z,19.63
2022-10-13T15:39:20.751Z,25.23
2022-10-13T15:41:53.404Z,22.80
2022-10-13T15:44:27.045Z,24.92
2022-10-13T15:47:07.885Z,21.55
2022-10-13T15:49:42.210Z,22.63
2022-10-13T15:52:14.743Z,15.52
2022-10-13T15:54:51.680Z,19.13
2022-10-13T15:57:24.379Z,18.75
2022-10-13T15:59:58.803Z,17.50
2022-10-13T16:02:31.713Z,17.98
2022-10-13T16:05:06.028Z,17.98
2022-10-13T16:07:41.533Z,19.35
2022-10-13T16:10:18.960Z,18.08
2022-10-13T16:12:52.162Z,18.13
2022-10-13T16:15:25.821Z,23.10
2022-10-13T16:17:58.829Z,18.92
2022-10-13T16:20:35.771Z,15.05
2022-10-13T16:23:08.360Z,16.52
2022-10-13T16:25:41.451Z,18.90
2022-10-13T16:28:15.381Z,15.52
2022-10-13T16:30:48.133Z,17.90
2022-10-13T16:33:21.830Z,18.65
2022-10-13T16:36:04.573Z,15.80
2022-10-13T16:38:37.685Z,16.42
2022-10-13T16:41:15.074Z,16.52
2022-10-13T16:43:48.467Z,17.75
2022-10-13T16:46:22.190Z,16.65
2022-10-13T16:48:55.011Z,16.10
2022-10-13T16:51:28.532Z,17.15
2022-10-13T16:54:04.263Z,15.00
2022-10-13T16:56:37.361Z,14.43
2022-10-13T16:59:10.987Z,15.80
2022-10-13T17:01:44.972Z,17.60
2022-10-13T17:04:21.997Z,16.55
2022-10-13T17:06:55.716Z,16.75
2022-10-13T17:09:28.383Z,20.45
2022-10-13T17:12:01.129Z,15.85
2022-10-13T17:14:33.638Z,20.50
2022-10-13T17:17:06.401Z,20.65
2022-10-13T17:19:38.909Z,18.60
2022-10-13T17:22:11.513Z,20.52
2022-10-13T17:24:48.613Z,18.30
2022-10-13T17:27:22.032Z,18.95
2022-10-13T17:29:55.218Z,20.75
2022-10-13T17:32:27.915Z,19.15
2022-10-13T17:35:00.818Z,21.65
2022-10-13T17:37:33.479Z,17.80
2022-10-13T17:40:06.810Z,17.88
2022-10-13T17:42:39.831Z,16.63
2022-10-13T17:45:12.445Z,17.17
2022-10-13T17:47:49.580Z,22.42
2022-10-13T17:50:22.513Z,21.13
2022-10-13T17:52:55.398Z,21.15
2022-10-13T17:55:28.405Z,17.67
2022-10-13T17:58:01.374Z,20.98
2022-10-13T18:00:54.104Z,22.75
2022-10-13T18:03:28.247Z,18.48
2022-10-13T18:06:01.222Z,25.17
2022-10-13T18:08:34.072Z,20.45
2022-10-13T18:11:09.180Z,19.80
2022-10-13T18:13:43.570Z,19.20
2022-10-13T18:16:21.614Z,23.08
2022-10-13T18:18:55.208Z,19.38
2022-10-13T18:21:30.972Z,19.70
2022-10-13T18:24:03.991Z,18.17
2022-10-13T18:26:36.856Z,18.17
2022-10-13T18:29:11.031Z,20.42
2022-10-13T18:31:44.017Z,18.65
2022-10-13T18:34:18.112Z,20.23
2022-10-13T18:36:55.445Z,18.27
2022-10-13T18:39:30.595Z,22.95
2022-10-13T18:42:03.063Z,20.02
2022-10-13T18:44:39.753Z,16.85
2022-10-13T18:47:12.934Z,20.90
2022-10-13T18:49:45.496Z,18.08
2022-10-13T18:52:18.272Z,18.85
2022-10-13T18:54:51.193Z,19.83
2022-10-13T18:57:24.026Z,22.02
2022-10-13T18:59:56.939Z,20.55
2022-10-13T19:02:34.723Z,25.67
2022-10-13T19:05:07.702Z,20.20
2022-10-13T19:07:40.335Z,25.63
2022-10-13T19:10:13.090Z,35.03
2022-10-13T19:12:47.921Z,25.65
2022-10-13T19:15:20.624Z,24.95
2022-10-13T19:17:55.618Z,24.45
2022-10-13T19:20:28.341Z,20.67
2022-10-13T19:23:04.002Z,22.48
2022-10-13T19:25:43.079Z,24.08
2022-10-13T19:28:16.082Z,21.33
2022-10-13T19:30:50.728Z,23.77
2022-10-13T19:33:23.344Z,20.63
2022-10-13T19:35:56.150Z,21.63
2022-10-13T19:38:28.698Z,20.80
2022-10-13T19:41:05.752Z,24.02
2022-10-13T19:43:38.209Z,25.65
2022-10-13T19:46:11.853Z,21.10
2022-10-13T19:49:13.191Z,24.02
2022-10-13T19:51:50.620Z,23.58
2022-10-13T19:54:24.339Z,26.52
2022-10-13T19:56:57.075Z,24.15
2022-10-13T19:59:29.757Z,20.25
2022-10-13T20:02:02.934Z,21.92
2022-10-13T20:04:35.582Z,23.58
2022-10-13T20:07:08.187Z,21.75
2022-10-13T20:09:41.051Z,22.52
2022-10-13T20:12:14.035Z,29.30
2022-10-13T20:14:51.580Z,22.63
2022-10-13T20:17:24.348Z,27.15
2022-10-13T20:19:57.000Z,26.65
2022-10-13T20:22:29.672Z,25.00
2022-10-13T20:25:02.254Z,144.18
2022-10-13T20:27:37.882Z,267.23
2022-10-13T20:30:14.068Z,70.03
2022-10-13T20:32:46.675Z,28.70
2022-10-13T20:35:19.193Z,27.23
2022-10-13T20:37:51.707Z,28.42
2022-10-13T20:40:26.376Z,22.73
2022-10-13T20:42:59.294Z,20.67
2022-10-13T20:45:31.802Z,29.92
2022-10-13T20:48:04.413Z,41.13
2022-10-13T20:50:37.452Z,138.93
2022-10-13T20:53:10.522Z,57.88
2022-10-13T20:55:45.097Z,33.17
2022-10-13T20:58:19.053Z,23.00
2022-10-13T21:00:52.468Z,24.77
2022-10-13T21:03:25.722Z,20.63
2022-10-13T21:06:03.739Z,22.75
2022-10-13T21:08:37.007Z,24.63
2022-10-13T21:11:12.404Z,21.70
2022-10-13T21:13:45.703Z,21.52
2022-10-13T21:16:21.834Z,21.38
2022-10-13T21:18:55.652Z,22.08
2022-10-13T21:21:31.231Z,23.90
2022-10-13T21:24:06.848Z,21.25
2022-10-13T21:26:41.142Z,20.38
2022-10-13T21:29:19.924Z,20.98
2022-10-13T21:31:52.664Z,28.48
2022-10-13T21:34:25.618Z,25.17
2022-10-13T21:36:58.200Z,21.30
2022-10-13T21:39:30.654Z,20.63
2022-10-13T21:42:03.163Z,20.17
2022-10-13T21:44:35.676Z,21.10
2022-10-13T21:47:12.130Z,18.30
2022-10-13T21:49:44.642Z,20.75
2022-10-13T21:52:17.244Z,22.15
2022-10-13T21:54:50.374Z,19.02
2022-10-13T21:57:23.570Z,20.17
2022-10-13T21:59:56.354Z,21.05
2022-10-13T22:02:28.967Z,20.38
2022-10-13T22:05:01.652Z,20.95
2022-10-13T22:07:34.367Z,18.65
2022-10-13T22:10:07.328Z,19.65
2022-10-13T22:12:39.978Z,19.17
2022-10-13T22:15:12.687Z,20.08
2022-10-13T22:17:45.148Z,19.23
2022-10-13T22:20:18.762Z,19.00
2022-10-13T22:22:51.355Z,19.60
2022-10-13T22:25:23.994Z,21.52
2022-10-13T22:27:56.703Z,19.77
2022-10-13T22:30:29.301Z,20.77
2022-10-13T22:33:01.900Z,20.75
2022-10-13T22:35:36.574Z,23.60
2022-10-13T22:38:10.335Z,19.63
2022-10-13T22:40:43.016Z,23.33
2022-10-13T22:43:15.633Z,19.10
2022-10-13T22:45:52.393Z,19.27
2022-10-13T22:48:25.102Z,21.20
2022-10-13T22:50:57.851Z,24.35
2022-10-13T22:53:35.329Z,20.75
2022-10-13T22:56:10.276Z,19.75
2022-10-13T22:58:42.760Z,21.73
2022-10-13T23:01:16.540Z,20.83
2022-10-13T23:03:51.786Z,19.65
2022-10-13T23:06:27.506Z,18.40
2022-10-13T23:09:03.247Z,22.70
2022-10-13T23:11:36.007Z,20.40
2022-10-13T23:14:11.124Z,25.50
2022-10-13T23:16:43.586Z,19.50
2022-10-13T23:19:16.200Z,22.60
2022-10-13T23:21:49.065Z,22.80
2022-10-13T23:24:21.811Z,20.83
2022-10-13T23:27:00.760Z,19.35
2022-10-13T23:29:33.284Z,19.30
2022-10-13T23:32:09.507Z,19.50
2022-10-13T23:34:42.815Z,22.17
2022-10-13T23:37:15.641Z,21.63
2022-10-13T23:39:48.124Z,17.77
2022-10-13T23:42:20.667Z,21.13
2022-10-13T23:44:53.279Z,24.98
2022-10-13T23:47:26.184Z,20.27
2022-10-13T23:49:58.762Z,19.55
2022-10-13T23:52:31.413Z,22.40
2022-10-13T23:55:04.378Z,20.63
2022-10-13T23:57:36.989Z,19.63
